createdAt,value
2023-10-29T00:01:07.160Z,96364.03
2023-10-29T00:03:33.668Z,96351.13
2023-10-29T00:06:00.239Z,96353.75
2023-10-29T00:08:26.821Z,96351.13
2023-10-29T00:10:53.542Z,96355.41
2023-10-29T00:13:20.076Z,96356.66
2023-10-29T00:15:46.575Z,96360.59
2023-10-29T00:18:13.174Z,96355.41
2023-10-29T00:20:40.361Z,96359.28
2023-10-29T00:23:07.684Z,96366.31
2023-10-29T00:25:34.130Z,96379.63
2023-10-29T00:28:00.636Z,96369.81
2023-10-29T00:30:27.096Z,96371.63
2023-10-29T00:32:53.677Z,96365.53
2023-10-29T00:35:20.524Z,96363.22
2023-10-29T00:37:47.054Z,96351.66
2023-10-29T00:40:13.645Z,96352.88
2023-10-29T00:42:40.218Z,96357.50
2023-10-29T00:45:07.126Z,96343.69
2023-10-29T00:47:33.993Z,96326.13
2023-10-29T00:50:00.640Z,96343.94
2023-10-29T00:52:27.137Z,96340.78
2023-10-29T00:54:53.645Z,96331.53
2023-10-29T00:57:20.764Z,96364.41
2023-10-29T00:59:47.510Z,96354.75
2023-10-29T01:02:14.432Z,96346.56
2023-10-29T01:04:41.606Z,96339.97
2023-10-29T01:07:08.152Z,96352.13
2023-10-29T01:09:35.311Z,96335.78
2023-10-29T01:12:01.746Z,96316.44
2023-10-29T01:14:28.311Z,96291.53
2023-10-29T01:16:55.143Z,96304.59
2023-10-29T01:19:21.610Z,96290.44
2023-10-29T01:21:48.194Z,96289.84
2023-10-29T01:24:14.647Z,96288.03
2023-10-29T01:26:41.101Z,96285.25
2023-10-29T01:29:07.742Z,96276.47
2023-10-29T01:31:34.651Z,96285.25
2023-10-29T01:34:01.159Z,96295.56
2023-10-29T01:36:27.646Z,96292.63
2023-10-29T01:38:54.190Z,96289.84
2023-10-29T01:41:20.633Z,96293.72
2023-10-29T01:43:47.292Z,96311.09
2023-10-29T01:46:13.760Z,96304.13
2023-10-29T01:48:40.479Z,96291.72
2023-10-29T01:51:08.239Z,96298.75
2023-10-29T01:53:34.767Z,96290.78
2023-10-29T01:56:01.302Z,96293.06
2023-10-29T01:58:28.427Z,96277.59
2023-10-29T02:00:54.930Z,96283.59
2023-10-29T02:03:23.074Z,96289.44
2023-10-29T02:05:49.803Z,96279.72
2023-10-29T02:08:16.540Z,96281.38
2023-10-29T02:10:42.991Z,96282.56
2023-10-29T02:13:10.363Z,96272.06
2023-10-29T02:15:37.094Z,96265.13
2023-10-29T02:18:04.122Z,96268.28
2023-10-29T02:20:30.732Z,96271.03
2023-10-29T02:22:57.183Z,96269.53
2023-10-29T02:25:24.019Z,96255.00
2023-10-29T02:27:50.439Z,96262.28
2023-10-29T02:30:18.037Z,96264.53
2023-10-29T02:32:44.683Z,96256.31
2023-10-29T02:35:11.308Z,96267.09
2023-10-29T02:37:37.757Z,96253.88
2023-10-29T02:40:04.931Z,96261.28
2023-10-29T02:42:31.342Z,96265.38
2023-10-29T02:44:57.814Z,96252.78
2023-10-29T02:47:24.357Z,96252.53
2023-10-29T02:49:50.810Z,96245.56
2023-10-29T02:52:17.259Z,96251.56
2023-10-29T02:54:43.861Z,96246.53
2023-10-29T02:57:11.270Z,96244.97
2023-10-29T02:59:38.074Z,96259.09
2023-10-29T03:02:04.680Z,96260.63
2023-10-29T03:04:31.281Z,96239.25
2023-10-29T03:06:57.914Z,96219.44
2023-10-29T03:09:24.506Z,96208.72
2023-10-29T03:11:51.143Z,96218.16
2023-10-29T03:14:17.717Z,96228.59
2023-10-29T03:16:44.249Z,96212.34
2023-10-29T03:19:10.741Z,96222.44
2023-10-29T03:21:37.231Z,96223.94
2023-10-29T03:24:04.255Z,96207.94
2023-10-29T03:26:30.722Z,96185.09
2023-10-29T03:28:57.169Z,96173.03
2023-10-29T03:31:23.802Z,96173.25
2023-10-29T03:33:50.385Z,96155.59
2023-10-29T03:36:17.400Z,96169.63
2023-10-29T03:38:43.881Z,96167.22
2023-10-29T03:41:23.312Z,96175.81
2023-10-29T03:43:50.647Z,96163.91
2023-10-29T03:46:17.292Z,96171.72
2023-10-29T03:48:43.908Z,96161.97
2023-10-29T03:51:10.364Z,96138.50
2023-10-29T03:53:37.714Z,96158.94
2023-10-29T03:56:04.553Z,96153.78
2023-10-29T03:58:31.792Z,96157.50
2023-10-29T04:00:59.347Z,96191.31
2023-10-29T04:03:25.865Z,96164.28
2023-10-29T04:05:52.824Z,96198.59
2023-10-29T04:08:19.297Z,96194.69
2023-10-29T04:10:45.717Z,96167.84
2023-10-29T04:13:13.244Z,96187.16
2023-10-29T04:15:39.686Z,96168.81
2023-10-29T04:18:06.264Z,96189.16
2023-10-29T04:20:32.780Z,96153.81
2023-10-29T04:22:59.255Z,96142.94
2023-10-29T04:25:25.937Z,96125.25
2023-10-29T04:27:52.440Z,96172.31
2023-10-29T04:30:19.313Z,96175.03
2023-10-29T04:32:45.887Z,96203.97
2023-10-29T04:35:12.443Z,96220.59
2023-10-29T04:37:39.122Z,96218.69
2023-10-29T04:40:06.407Z,96217.34
2023-10-29T04:42:32.867Z,96231.19
2023-10-29T04:44:59.374Z,96209.81
2023-10-29T04:47:25.863Z,96218.78
2023-10-29T04:49:52.345Z,96228.44
2023-10-29T04:52:18.760Z,96230.91
2023-10-29T04:54:45.363Z,96229.59
2023-10-29T04:57:11.915Z,96210.84
2023-10-29T04:59:38.413Z,96190.22
2023-10-29T05:02:05.170Z,96181.91
2023-10-29T05:04:31.890Z,96184.88
2023-10-29T05:06:58.343Z,96213.84
2023-10-29T05:09:25.002Z,96228.38
2023-10-29T05:11:51.542Z,96236.88
2023-10-29T05:14:18.021Z,96242.16
2023-10-29T05:16:44.695Z,96244.63
2023-10-29T05:19:11.232Z,96258.97
2023-10-29T05:21:37.709Z,96260.69
2023-10-29T05:24:04.501Z,96264.06
2023-10-29T05:26:30.993Z,96274.38
2023-10-29T05:28:57.520Z,96278.28
2023-10-29T05:31:24.055Z,96270.69
2023-10-29T05:33:50.557Z,96281.16
2023-10-29T05:36:17.100Z,96276.19
2023-10-29T05:38:43.628Z,96285.72
2023-10-29T05:41:10.125Z,96280.09
2023-10-29T05:43:36.816Z,96286.31
2023-10-29T05:46:04.234Z,96270.84
2023-10-29T05:48:31.044Z,96291.38
2023-10-29T05:50:59.996Z,96275.59
2023-10-29T05:53:26.472Z,96283.53
2023-10-29T05:55:54.378Z,96298.34
2023-10-29T05:58:22.342Z,96286.09
2023-10-29T06:00:48.996Z,96297.53
2023-10-29T06:03:20.365Z,96301.56
2023-10-29T06:05:47.112Z,96300.03
2023-10-29T06:08:13.791Z,96295.44
2023-10-29T06:10:40.224Z,96299.84
2023-10-29T06:13:06.689Z,96286.00
2023-10-29T06:15:33.753Z,96287.63
2023-10-29T06:18:00.932Z,96300.22
2023-10-29T06:20:27.574Z,96293.38
2023-10-29T06:22:54.107Z,96285.66
2023-10-29T06:25:20.586Z,96292.56
2023-10-29T06:27:47.086Z,96296.78
2023-10-29T06:30:13.695Z,96311.09
2023-10-29T06:32:40.678Z,96325.63
2023-10-29T06:35:07.473Z,96324.44
2023-10-29T06:37:33.952Z,96330.59
2023-10-29T06:40:00.574Z,96323.41
2023-10-29T06:42:27.066Z,96327.50
2023-10-29T06:44:53.577Z,96325.41
2023-10-29T06:47:20.403Z,96323.28
2023-10-29T06:49:46.864Z,96304.06
2023-10-29T06:52:13.327Z,96314.84
2023-10-29T06:54:39.751Z,96309.31
2023-10-29T06:57:06.516Z,96322.16
2023-10-29T06:59:33.068Z,96308.22
2023-10-29T07:01:59.542Z,96309.31
2023-10-29T07:04:26.994Z,96308.66
2023-10-29T07:06:53.841Z,96320.00
2023-10-29T07:09:20.391Z,96322.03
2023-10-29T07:11:47.050Z,96315.03
2023-10-29T07:14:13.592Z,96329.75
2023-10-29T07:16:43.091Z,96328.56
2023-10-29T07:19:09.580Z,96326.31
2023-10-29T07:21:36.031Z,96337.19
2023-10-29T07:24:02.511Z,96329.47
2023-10-29T07:26:28.974Z,96337.28
2023-10-29T07:28:55.444Z,96350.78
2023-10-29T07:31:22.161Z,96339.56
2023-10-29T07:33:48.700Z,96324.66
2023-10-29T07:36:15.240Z,96331.75
2023-10-29T07:38:44.422Z,96331.09
2023-10-29T07:41:10.930Z,96320.78
2023-10-29T07:43:37.454Z,96329.75
2023-10-29T07:46:04.817Z,96327.88
2023-10-29T07:48:31.514Z,96341.94
2023-10-29T07:50:58.015Z,96336.59
2023-10-29T07:53:25.145Z,96349.44
2023-10-29T07:55:51.807Z,96356.75
2023-10-29T07:58:18.274Z,96363.53
2023-10-29T08:00:44.812Z,96345.31
2023-10-29T08:03:11.449Z,96339.69
2023-10-29T08:05:38.156Z,96338.09
2023-10-29T08:08:04.918Z,96339.84
2023-10-29T08:10:31.349Z,96343.28
2023-10-29T08:12:57.784Z,96353.34
2023-10-29T08:15:24.325Z,96354.38
2023-10-29T08:17:50.854Z,96341.94
2023-10-29T08:20:17.310Z,96353.88
2023-10-29T08:22:45.923Z,96339.91
2023-10-29T08:25:13.068Z,96347.00
2023-10-29T08:27:39.547Z,96350.75
2023-10-29T08:30:07.588Z,96357.75
2023-10-29T08:32:34.308Z,96360.69
2023-10-29T08:35:00.886Z,96365.25
2023-10-29T08:37:27.316Z,96367.00
2023-10-29T08:39:57.924Z,96373.66
2023-10-29T08:42:24.325Z,96376.59
2023-10-29T08:44:56.375Z,96380.50
2023-10-29T08:47:22.870Z,96365.53
2023-10-29T08:49:49.381Z,96369.50
2023-10-29T08:52:15.934Z,96388.81
2023-10-29T08:54:42.386Z,96397.41
2023-10-29T08:57:08.827Z,96402.94
2023-10-29T08:59:35.367Z,96401.41
2023-10-29T09:02:01.842Z,96414.66
2023-10-29T09:04:28.434Z,96406.03
2023-10-29T09:06:55.190Z,96421.44
2023-10-29T09:09:21.694Z,96440.31
2023-10-29T09:11:52.471Z,96452.84
2023-10-29T09:14:19.297Z,96449.41
2023-10-29T09:16:45.763Z,96438.47
2023-10-29T09:19:12.214Z,96435.75
2023-10-29T09:21:38.646Z,96447.97
2023-10-29T09:24:05.488Z,96442.56
2023-10-29T09:26:32.520Z,96439.41
2023-10-29T09:28:59.040Z,96452.69
2023-10-29T09:31:25.597Z,96448.19
2023-10-29T09:33:52.093Z,96456.28
2023-10-29T09:36:18.603Z,96463.38
2023-10-29T09:38:45.065Z,96452.31
2023-10-29T09:41:11.870Z,96452.16
2023-10-29T09:43:41.769Z,96448.44
2023-10-29T09:46:14.702Z,96459.63
2023-10-29T09:48:43.996Z,96437.00
2023-10-29T09:51:11.008Z,96437.34
2023-10-29T09:53:38.577Z,96443.19
2023-10-29T09:56:11.817Z,96433.22
2023-10-29T09:58:38.613Z,96434.44
2023-10-29T10:01:05.939Z,96424.78
2023-10-29T10:03:32.764Z,96407.03
2023-10-29T10:06:00.025Z,96391.88
2023-10-29T10:08:30.840Z,96393.47
2023-10-29T10:10:58.397Z,96391.78
2023-10-29T10:13:38.591Z,96405.63
2023-10-29T10:16:09.326Z,96416.25
2023-10-29T10:18:55.176Z,96423.09
2023-10-29T10:21:23.544Z,96427.69
2023-10-29T10:23:51.105Z,96416.66
2023-10-29T10:26:27.242Z,96407.34
2023-10-29T10:28:55.348Z,96413.25
2023-10-29T10:31:22.267Z,96414.78
2023-10-29T10:33:49.438Z,96410.16
2023-10-29T10:36:30.761Z,96399.50
2023-10-29T10:38:57.242Z,96401.09
2023-10-29T10:41:23.718Z,96401.66
2023-10-29T10:44:08.254Z,96405.69
2023-10-29T10:46:36.184Z,96405.72
2023-10-29T10:49:03.875Z,96420.25
2023-10-29T10:51:31.723Z,96427.03
2023-10-29T10:54:01.628Z,96424.91
2023-10-29T10:56:31.550Z,96415.00
2023-10-29T10:59:00.331Z,96414.78
2023-10-29T11:01:27.831Z,96420.44
2023-10-29T11:03:55.975Z,96437.00
2023-10-29T11:06:22.559Z,96425.88
2023-10-29T11:08:49.738Z,96432.41
2023-10-29T11:11:17.904Z,96436.81
2023-10-29T11:13:44.410Z,96406.50
2023-10-29T11:16:24.376Z,96379.97
2023-10-29T11:18:50.878Z,96417.81
2023-10-29T11:21:33.540Z,96436.69
2023-10-29T11:24:19.477Z,96426.78
2023-10-29T11:26:46.002Z,96426.59
2023-10-29T11:29:50.554Z,96420.31
2023-10-29T11:32:27.104Z,96383.69
2023-10-29T11:35:16.305Z,96381.38
2023-10-29T11:37:43.563Z,96371.00
2023-10-29T11:40:28.965Z,96379.97
2023-10-29T11:43:16.305Z,96400.44
2023-10-29T11:45:58.829Z,96417.78
2023-10-29T11:48:26.028Z,96408.22
2023-10-29T11:51:05.070Z,96403.91
2023-10-29T11:53:31.586Z,96406.31
2023-10-29T11:56:00.593Z,96401.50
2023-10-29T11:58:27.746Z,96412.88
2023-10-29T12:00:54.238Z,96404.69
2023-10-29T12:03:21.940Z,96405.25
2023-10-29T12:05:55.678Z,96425.75
2023-10-29T12:08:27.034Z,96417.38
2023-10-29T12:10:57.351Z,96425.06
2023-10-29T12:13:24.105Z,96416.91
2023-10-29T12:15:58.530Z,96408.84
2023-10-29T12:18:28.088Z,96394.16
2023-10-29T12:21:06.426Z,96364.53
2023-10-29T12:23:33.496Z,96357.28
2023-10-29T12:26:02.374Z,96374.94
2023-10-29T12:28:29.259Z,96382.53
2023-10-29T12:30:55.726Z,96381.31
2023-10-29T12:33:24.357Z,96365.00
2023-10-29T12:35:52.150Z,96389.59
2023-10-29T12:38:19.943Z,96383.91
2023-10-29T12:41:04.699Z,96401.41
2023-10-29T12:43:33.994Z,96420.34
2023-10-29T12:46:01.417Z,96413.25
2023-10-29T12:48:28.664Z,96412.00
2023-10-29T12:50:55.280Z,96423.91
2023-10-29T12:53:32.701Z,96413.50
2023-10-29T12:56:00.945Z,96432.91
2023-10-29T12:58:28.770Z,96423.09
2023-10-29T13:00:57.189Z,96421.59
2023-10-29T13:03:25.933Z,96418.53
2023-10-29T13:05:54.053Z,96396.97
2023-10-29T13:08:21.974Z,96373.25
2023-10-29T13:10:48.749Z,96355.78
2023-10-29T13:13:15.332Z,96337.63
2023-10-29T13:15:42.952Z,96345.47
2023-10-29T13:18:10.148Z,96349.69
2023-10-29T13:20:36.846Z,96337.63
2023-10-29T13:23:03.436Z,96357.53
2023-10-29T13:25:30.148Z,96367.38
2023-10-29T13:27:56.666Z,96383.31
2023-10-29T13:30:23.158Z,96397.59
2023-10-29T13:32:49.828Z,96389.66
2023-10-29T13:35:16.410Z,96369.38
2023-10-29T13:37:43.262Z,96366.50
2023-10-29T13:40:10.153Z,96371.13
2023-10-29T13:42:36.651Z,96381.25
2023-10-29T13:45:03.395Z,96374.72
2023-10-29T13:47:29.922Z,96382.47
2023-10-29T13:49:56.481Z,96399.50
2023-10-29T13:52:22.974Z,96383.91
2023-10-29T13:54:49.586Z,96388.22
2023-10-29T13:57:16.193Z,96375.81
2023-10-29T13:59:42.771Z,96391.59
2023-10-29T14:02:09.189Z,96386.31
2023-10-29T14:04:35.658Z,96353.78
2023-10-29T14:07:02.110Z,96331.22
2023-10-29T14:09:28.666Z,96324.13
2023-10-29T14:11:55.217Z,96310.06
2023-10-29T14:14:21.940Z,96304.28
2023-10-29T14:16:48.486Z,96307.97
2023-10-29T14:19:15.154Z,96277.31
2023-10-29T14:21:41.684Z,96254.94
2023-10-29T14:24:09.402Z,96249.75
2023-10-29T14:26:36.411Z,96255.09
2023-10-29T14:29:03.148Z,96254.16
2023-10-29T14:31:29.966Z,96271.91
2023-10-29T14:33:56.546Z,96275.75
2023-10-29T14:36:23.089Z,96302.13
2023-10-29T14:38:49.941Z,96287.47
2023-10-29T14:41:17.407Z,96269.88
2023-10-29T14:43:44.381Z,96277.31
2023-10-29T14:46:11.051Z,96273.00
2023-10-29T14:48:37.557Z,96289.66
2023-10-29T14:51:05.858Z,96284.25
2023-10-29T14:53:32.754Z,96290.88
2023-10-29T14:55:59.773Z,96299.28
2023-10-29T14:58:26.340Z,96304.44
2023-10-29T15:00:52.902Z,96307.66
2023-10-29T15:03:19.480Z,96320.06
2023-10-29T15:05:46.144Z,96318.84
2023-10-29T15:08:12.702Z,96331.94
2023-10-29T15:10:39.164Z,96331.69
2023-10-29T15:13:05.667Z,96364.41
2023-10-29T15:15:32.222Z,96368.75
2023-10-29T15:17:59.138Z,96357.06
2023-10-29T15:20:26.462Z,96363.84
2023-10-29T15:22:53.366Z,96342.91
2023-10-29T15:25:20.076Z,96330.97
2023-10-29T15:27:46.768Z,96346.03
2023-10-29T15:30:13.556Z,96360.22
2023-10-29T15:32:40.259Z,96364.19
2023-10-29T15:35:07.089Z,96375.31
2023-10-29T15:37:33.658Z,96354.03
2023-10-29T15:40:00.248Z,96366.28
2023-10-29T15:42:27.623Z,96365.00
2023-10-29T15:44:54.391Z,96363.28
2023-10-29T15:47:20.966Z,96376.72
2023-10-29T15:49:47.574Z,96358.44
2023-10-29T15:52:14.121Z,96374.47
2023-10-29T15:54:40.687Z,96385.69
2023-10-29T15:57:07.212Z,96402.88
2023-10-29T15:59:33.755Z,96405.38
2023-10-29T16:02:00.236Z,96424.59
2023-10-29T16:04:26.882Z,96427.69
2023-10-29T16:06:53.406Z,96422.72
2023-10-29T16:09:20.093Z,96411.13
2023-10-29T16:11:46.898Z,96399.22
2023-10-29T16:14:13.446Z,96366.91
2023-10-29T16:16:40.447Z,96361.91
2023-10-29T16:19:07.041Z,96387.78
2023-10-29T16:21:33.555Z,96384.47
2023-10-29T16:24:00.062Z,96388.09
2023-10-29T16:26:26.558Z,96401.94
2023-10-29T16:28:53.505Z,96410.28
2023-10-29T16:31:20.373Z,96399.19
2023-10-29T16:33:47.015Z,96420.09
2023-10-29T16:36:13.585Z,96416.75
2023-10-29T16:38:40.202Z,96428.13
2023-10-29T16:41:06.686Z,96423.25
2023-10-29T16:43:33.231Z,96424.47
2023-10-29T16:46:00.338Z,96415.88
2023-10-29T16:48:26.973Z,96438.19
2023-10-29T16:51:02.732Z,96453.53
2023-10-29T16:53:30.424Z,96456.47
2023-10-29T16:56:06.005Z,96445.06
2023-10-29T16:58:33.041Z,96444.16
2023-10-29T17:01:00.634Z,96446.44
2023-10-29T17:03:30.237Z,96448.03
2023-10-29T17:05:56.979Z,96457.84
2023-10-29T17:08:24.076Z,96429.56
2023-10-29T17:10:50.942Z,96434.00
2023-10-29T17:13:17.468Z,96434.66
2023-10-29T17:15:44.014Z,96430.97
2023-10-29T17:18:10.676Z,96447.53
2023-10-29T17:20:37.352Z,96435.72
2023-10-29T17:23:03.919Z,96430.34
2023-10-29T17:25:34.474Z,96437.41
2023-10-29T17:28:00.999Z,96462.47
2023-10-29T17:30:27.475Z,96477.69
2023-10-29T17:32:54.056Z,96486.00
2023-10-29T17:35:20.644Z,96492.59
2023-10-29T17:37:47.132Z,96505.34
2023-10-29T17:40:13.824Z,96499.50
2023-10-29T17:42:40.275Z,96501.94
2023-10-29T17:45:07.568Z,96506.56
2023-10-29T17:47:34.037Z,96505.03
2023-10-29T17:50:01.003Z,96508.09
2023-10-29T17:52:27.526Z,96524.06
2023-10-29T17:54:54.159Z,96522.22
2023-10-29T17:57:20.661Z,96514.22
2023-10-29T17:59:47.263Z,96529.28
2023-10-29T18:02:13.761Z,96533.91
2023-10-29T18:04:40.254Z,96536.97
2023-10-29T18:07:06.984Z,96543.72
2023-10-29T18:09:33.761Z,96540.38
2023-10-29T18:12:00.299Z,96542.22
2023-10-29T18:14:26.878Z,96543.75
2023-10-29T18:16:54.117Z,96543.88
2023-10-29T18:19:20.557Z,96553.88
2023-10-29T18:21:47.222Z,96553.41
2023-10-29T18:24:13.717Z,96546.97
2023-10-29T18:26:40.312Z,96547.56
2023-10-29T18:29:10.119Z,96554.97
2023-10-29T18:31:37.145Z,96559.53
2023-10-29T18:34:04.552Z,96568.44
2023-10-29T18:36:31.302Z,96580.00
2023-10-29T18:38:57.985Z,96578.88
2023-10-29T18:41:24.518Z,96593.16
2023-10-29T18:43:51.109Z,96588.28
2023-10-29T18:46:17.648Z,96588.28
2023-10-29T18:48:44.928Z,96603.19
2023-10-29T18:51:11.526Z,96602.28
2023-10-29T18:53:38.045Z,96609.47
2023-10-29T18:56:06.128Z,96617.44
2023-10-29T18:58:32.636Z,96615.31
2023-10-29T19:01:09.092Z,96613.66
2023-10-29T19:03:37.262Z,96624.22
2023-10-29T19:06:11.758Z,96628.06
2023-10-29T19:08:38.391Z,96624.22
2023-10-29T19:11:05.546Z,96630.31
2023-10-29T19:13:33.141Z,96633.56
2023-10-29T19:16:01.297Z,96629.03
2023-10-29T19:18:27.985Z,96644.41
2023-10-29T19:20:54.526Z,96645.41
2023-10-29T19:23:21.096Z,96641.53
2023-10-29T19:25:47.632Z,96657.84
2023-10-29T19:28:14.075Z,96665.03
2023-10-29T19:30:59.437Z,96657.13
2023-10-29T19:33:31.050Z,96661.41
2023-10-29T19:35:57.584Z,96674.97
2023-10-29T19:38:24.020Z,96671.53
2023-10-29T19:40:57.632Z,96675.06
2023-10-29T19:43:24.218Z,96677.53
2023-10-29T19:45:58.146Z,96689.66
2023-10-29T19:48:27.416Z,96687.81
2023-10-29T19:51:01.362Z,96695.06
2023-10-29T19:53:30.654Z,96704.59
2023-10-29T19:55:57.693Z,96709.53
2023-10-29T19:58:25.271Z,96700.88
2023-10-29T20:00:52.462Z,96702.25
2023-10-29T20:03:19.115Z,96710.81
2023-10-29T20:05:45.999Z,96708.31
2023-10-29T20:08:12.546Z,96716.53
2023-10-29T20:10:40.076Z,96704.19
2023-10-29T20:13:06.961Z,96700.22
2023-10-29T20:15:35.276Z,96714.63
2023-10-29T20:18:02.797Z,96712.16
2023-10-29T20:20:30.055Z,96706.66
2023-10-29T20:22:56.747Z,96713.88
2023-10-29T20:25:23.464Z,96718.56
2023-10-29T20:27:50.489Z,96709.75
2023-10-29T20:30:16.956Z,96702.84
2023-10-29T20:32:43.580Z,96703.19
2023-10-29T20:35:10.059Z,96700.94
2023-10-29T20:37:36.550Z,96726.44
2023-10-29T20:40:03.420Z,96718.09
2023-10-29T20:42:29.895Z,96740.78
2023-10-29T20:44:56.402Z,96739.03
2023-10-29T20:47:22.906Z,96755.16
2023-10-29T20:49:49.586Z,96757.25
2023-10-29T20:52:16.231Z,96758.22
2023-10-29T20:54:42.855Z,96765.19
2023-10-29T20:57:09.414Z,96762.69
2023-10-29T20:59:38.047Z,96758.31
2023-10-29T21:02:04.670Z,96768.00
2023-10-29T21:04:31.196Z,96776.53
2023-10-29T21:06:57.783Z,96777.16
2023-10-29T21:09:24.377Z,96768.03
2023-10-29T21:11:51.569Z,96787.13
2023-10-29T21:14:18.983Z,96781.06
2023-10-29T21:16:45.542Z,96801.13
2023-10-29T21:19:12.678Z,96795.72
2023-10-29T21:21:39.320Z,96794.75
2023-10-29T21:24:07.001Z,96799.72
2023-10-29T21:26:33.897Z,96797.59
2023-10-29T21:29:01.226Z,96793.25
2023-10-29T21:31:27.761Z,96782.00
2023-10-29T21:33:56.703Z,96771.53
2023-10-29T21:36:23.165Z,96786.72
2023-10-29T21:38:49.775Z,96792.75
2023-10-29T21:53:42.659Z,96783.78
2023-10-29T21:56:13.861Z,96797.13
2023-10-29T21:58:40.488Z,96788.75
2023-10-29T22:01:11.418Z,96784.66
2023-10-29T22:03:37.974Z,96792.00
2023-10-29T22:06:06.213Z,96800.16
2023-10-29T22:08:33.509Z,96798.09
2023-10-29T22:11:03.735Z,96805.94
2023-10-29T22:13:31.779Z,96818.38
2023-10-29T22:16:12.199Z,96810.56
2023-10-29T22:18:39.564Z,96806.25
2023-10-29T22:21:10.937Z,96808.06
2023-10-29T22:23:38.973Z,96815.31
2023-10-29T22:26:06.580Z,96823.19
2023-10-29T22:28:33.173Z,96823.47
2023-10-29T22:31:00.999Z,96828.97
2023-10-29T22:33:28.982Z,96836.34
2023-10-29T22:36:07.941Z,96822.66
2023-10-29T22:38:34.858Z,96827.47
2023-10-29T22:41:09.651Z,96820.97
2023-10-29T22:43:36.500Z,96817.06
2023-10-29T22:46:03.774Z,96811.22
2023-10-29T22:48:30.516Z,96814.81
2023-10-29T22:50:57.591Z,96820.25
2023-10-29T22:53:24.115Z,96826.81
2023-10-29T22:55:50.635Z,96819.13
2023-10-29T22:58:17.607Z,96829.78
2023-10-29T23:00:44.234Z,96841.09
2023-10-29T23:03:10.846Z,96828.63
2023-10-29T23:05:37.392Z,96828.00
2023-10-29T23:08:04.314Z,96837.56
2023-10-29T23:10:31.887Z,96838.91
2023-10-29T23:12:58.862Z,96836.84
2023-10-29T23:15:25.453Z,96826.78
2023-10-29T23:17:52.005Z,96824.31
2023-10-29T23:20:18.556Z,96827.06
2023-10-29T23:22:45.135Z,96839.53
2023-10-29T23:25:11.781Z,96821.59
2023-10-29T23:27:39.703Z,96836.59
2023-10-29T23:30:06.877Z,96830.81
2023-10-29T23:32:33.522Z,96837.59
2023-10-29T23:35:00.040Z,96837.22
2023-10-29T23:37:26.519Z,96835.06
2023-10-29T23:39:52.998Z,96842.22
2023-10-29T23:42:19.625Z,96838.59
2023-10-29T23:44:46.104Z,96849.78
2023-10-29T23:47:12.642Z,96856.75
2023-10-29T23:49:39.334Z,96853.56
2023-10-29T23:52:05.996Z,96850.13
2023-10-29T23:54:32.581Z,96859.56
2023-10-29T23:56:59.206Z,96858.22
2023-10-29T23:59:25.709Z,96873.56
